Time;durP1;ratioP1;P1;durP2;ratioP2;P2;SDS_P1;SDS_P2;PMS_P1;PMS_P2;Temp;Humidity;BMP_temperature;BMP_pressure;BME280_temperature;BME280_humidity;BME280_pressure;Samples;Min_cycle;Max_cycle;Signal;HPM_P1;HPM_P2
2022/11/14 00:01:56;;;;;;;8.15;4.13;;;;;;;13.81;100.00;102558.56;5101322;28;20050;-78
2022/11/14 00:04:21;;;;;;;8.10;4.35;;;;;;;13.75;100.00;102551.16;5087721;28;20036;-79
2022/11/14 00:06:47;;;;;;;11.52;4.25;;;;;;;13.67;100.00;102529.53;5090632;28;20023;-74
2022/11/14 00:09:12;;;;;;;5.60;4.68;;;;;;;13.80;100.00;102546.88;5080740;28;20067;-75
2022/11/14 00:11:37;;;;;;;7.90;4.20;;;;;;;13.73;100.00;102545.91;5063619;28;20513;-77
2022/11/14 00:14:03;;;;;;;6.95;4.40;;;;;;;13.67;100.00;102545.78;5089778;28;20052;-76
2022/11/14 00:16:28;;;;;;;6.20;4.30;;;;;;;13.75;100.00;102541.19;5087227;28;20031;-80
2022/11/14 00:18:53;;;;;;;7.03;4.20;;;;;;;13.63;100.00;102516.38;5066452;28;20036;-82
2022/11/14 00:21:19;;;;;;;6.93;4.43;;;;;;;13.80;100.00;102546.03;5111393;28;20035;-76
2022/11/14 00:23:44;;;;;;;9.98;4.03;;;;;;;13.82;100.00;102538.59;5081123;28;20490;-76
2022/11/14 00:26:09;;;;;;;4.03;3.60;;;;;;;13.71;100.00;102541.69;5088656;28;20036;-76
2022/11/14 00:28:35;;;;;;;4.28;3.58;;;;;;;13.82;100.00;102530.50;5106441;28;20059;-78
2022/11/14 00:31:00;;;;;;;6.03;3.80;;;;;;;13.80;100.00;102538.75;5081394;28;20036;-80
2022/11/14 00:33:25;;;;;;;6.57;3.90;;;;;;;13.88;100.00;102528.94;5111551;28;20066;-83
2022/11/14 00:35:53;;;;;;;6.57;3.63;;;;;;;13.94;100.00;102529.06;5100168;28;20543;-80
2022/11/14 00:38:18;;;;;;;5.40;3.42;;;;;;;13.96;100.00;102535.13;5087618;28;20494;-72
2022/11/14 00:40:44;;;;;;;4.30;3.20;;;;;;;13.99;100.00;102531.22;5089049;28;20107;-79
2022/11/14 00:43:09;;;;;;;8.07;4.15;;;;;;;14.00;100.00;102528.31;5080234;28;20118;-73
2022/11/14 00:45:34;;;;;;;5.90;3.25;;;;;;;14.01;100.00;102526.47;5075983;28;20398;-85
2022/11/14 00:48:00;;;;;;;5.78;3.45;;;;;;;14.02;100.00;102528.16;5066265;28;20045;-79
2022/11/14 00:50:25;;;;;;;8.82;3.30;;;;;;;14.01;100.00;102519.19;5104618;28;20090;-85
2022/11/14 00:52:50;;;;;;;5.40;3.40;;;;;;;14.00;100.00;102516.66;5107811;28;20047;-76
2022/11/14 00:55:16;;;;;;;4.55;2.88;;;;;;;13.96;100.00;102508.06;5097953;28;20032;-82
2022/11/14 00:57:41;;;;;;;6.18;3.20;;;;;;;13.96;100.00;102510.75;5091583;28;20035;-81
2022/11/14 01:00:08;;;;;;;6.93;2.90;;;;;;;13.96;100.00;102508.06;5100734;28;20032;-72
2022/11/14 01:02:34;;;;;;;6.22;3.30;;;;;;;13.96;100.00;102497.22;5101887;28;20511;-80
2022/11/14 01:05:01;;;;;;;5.00;2.92;;;;;;;13.93;100.00;102500.28;5089685;28;20043;-79
2022/11/14 01:07:26;;;;;;;5.50;2.58;;;;;;;13.67;100.00;102473.56;5096640;28;20128;-72
2022/11/14 01:09:52;;;;;;;5.20;2.90;;;;;;;13.85;100.00;102506.63;5108882;28;20487;-76
2022/11/14 01:12:17;;;;;;;3.35;2.38;;;;;;;13.71;100.00;102480.34;5084463;28;20119;-76
2022/11/14 01:14:43;;;;;;;4.05;2.28;;;;;;;13.89;100.00;102508.97;5083329;28;20058;-66
2022/11/14 01:17:08;;;;;;;4.63;2.67;;;;;;;13.90;100.00;102497.94;5091699;28;20067;-78
2022/11/14 01:19:34;;;;;;;3.90;2.20;;;;;;;13.94;100.00;102502.00;5078992;28;20318;-77
2022/11/14 01:22:00;;;;;;;7.40;2.40;;;;;;;13.93;100.00;102500.28;5107585;28;20034;-79
2022/11/14 01:24:25;;;;;;;8.32;2.58;;;;;;;13.95;100.00;102503.69;5085735;28;20486;-69
2022/11/14 01:26:54;;;;;;;4.40;2.30;;;;;;;13.94;100.00;102495.72;5101055;28;20146;-74
2022/11/14 01:29:19;;;;;;;5.03;2.55;;;;;;;13.91;100.00;102491.53;5110371;28;20024;-80
2022/11/14 01:31:45;;;;;;;8.35;2.70;;;;;;;13.87;100.00;102490.19;5097733;28;20062;-69
2022/11/14 01:34:10;;;;;;;4.25;2.20;;;;;;;13.86;100.00;102483.09;5105631;28;20032;-79
2022/11/14 01:36:35;;;;;;;2.75;1.80;;;;;;;13.88;100.00;102485.66;5104359;28;20432;-71
2022/11/14 01:39:01;;;;;;;5.90;1.85;;;;;;;13.88;100.00;102485.66;5098784;28;20035;-74
2022/11/14 01:41:26;;;;;;;4.47;2.03;;;;;;;13.83;100.00;102483.47;5074959;28;20038;-78
2022/11/14 01:43:51;;;;;;;4.13;2.25;;;;;;;13.78;100.00;102483.16;5098833;28;20084;-71
2022/11/14 01:46:25;;;;;;;5.05;1.90;;;;;;;13.73;100.00;102472.88;5104920;28;20036;-68
2022/11/14 01:49:05;;;;;;;5.15;1.70;;;;;;;13.76;100.00;102479.78;5088619;28;20031;-80
2022/11/14 01:51:45;;;;;;;5.15;2.00;;;;;;;13.75;100.00;102472.69;5096573;28;20028;-71
2022/11/14 01:54:33;;;;;;;3.72;1.80;;;;;;;13.55;100.00;102451.53;5105658;28;20028;-74
2022/11/14 01:57:01;;;;;;;4.82;1.70;;;;;;;13.73;100.00;102480.16;5107511;28;20052;-77
2022/11/14 01:59:36;;;;;;;7.78;1.35;;;;;;;13.73;100.00;102472.03;5096423;28;20375;-76
2022/11/14 02:02:09;;;;;;;2.25;1.27;;;;;;;13.71;100.00;102468.66;5105847;28;20032;-75
2022/11/14 02:04:41;;;;;;;2.03;1.33;;;;;;;13.53;100.00;102433.78;5103841;28;20032;-81
2022/11/14 02:07:08;;;;;;;3.22;1.30;;;;;;;13.58;100.00;102462.00;5097173;28;20028;-80
2022/11/14 02:09:36;;;;;;;2.17;0.98;;;;;;;13.56;100.00;102449.66;5109379;28;20047;-75
2022/11/14 02:12:07;;;;;;;1.92;1.00;;;;;;;13.69;100.00;102457.19;5099205;28;20080;-80
2022/11/14 02:14:34;;;;;;;5.32;1.20;;;;;;;13.70;100.00;102450.75;5083568;28;20390;-82
2022/11/14 02:16:59;;;;;;;4.13;1.20;;;;;;;13.70;100.00;102453.44;5107107;28;20046;-74
2022/11/14 02:19:24;;;;;;;3.10;1.20;;;;;;;13.71;100.00;102445.16;5077678;28;20039;-66
2022/11/14 02:21:50;;;;;;;4.07;1.27;;;;;;;13.57;100.00;102446.75;5107455;28;20035;-82
2022/11/14 02:24:15;;;;;;;5.22;1.30;;;;;;;13.55;100.00;102447.97;5100693;28;20393;-80
2022/11/14 02:26:41;;;;;;;2.40;1.00;;;;;;;13.45;100.00;102445.50;5082507;28;20036;-75
2022/11/14 02:29:09;;;;;;;2.00;1.00;;;;;;;13.47;100.00;102454.25;5089850;28;20032;-65
2022/11/14 02:31:35;;;;;;;1.23;1.10;;;;;;;13.48;100.00;102442.44;5095771;28;20050;-75
2022/11/14 02:34:01;;;;;;;3.05;0.82;;;;;;;13.50;100.00;102444.97;5106314;28;20059;-80
2022/11/14 02:36:26;;;;;;;2.35;1.02;;;;;;;13.46;100.00;102443.63;5083986;28;20111;-70
2022/11/14 02:38:51;;;;;;;1.23;1.00;;;;;;;13.40;100.00;102445.19;5099178;28;20063;-78
2022/11/14 02:41:17;;;;;;;3.05;1.00;;;;;;;13.35;100.00;102440.31;5073884;28;20493;-77
2022/11/14 02:43:42;;;;;;;2.45;0.90;;;;;;;13.32;100.00;102445.25;5077901;28;20024;-72
2022/11/14 02:46:09;;;;;;;1.65;0.95;;;;;;;13.43;100.00;102434.00;5105315;28;20039;-79
2022/11/14 02:48:34;;;;;;;3.05;1.00;;;;;;;13.35;100.00;102425.97;5102987;28;20034;-79
2022/11/14 02:50:59;;;;;;;3.13;0.80;;;;;;;13.41;100.00;102417.13;5079682;28;20036;-76
2022/11/14 02:53:25;;;;;;;1.95;0.90;;;;;;;13.41;100.00;102414.44;5090737;28;20122;-78
2022/11/14 02:55:50;;;;;;;1.17;0.80;;;;;;;13.33;100.00;102420.72;5096854;28;20080;-83
2022/11/14 02:58:16;;;;;;;3.47;0.93;;;;;;;13.29;100.00;102410.44;5104336;28;20035;-80
2022/11/14 03:00:41;;;;;;;1.30;0.73;;;;;;;13.30;100.00;102412.13;5069091;28;20094;-75
2022/11/14 03:03:06;;;;;;;4.25;0.70;;;;;;;13.32;100.00;102412.78;5096471;28;20028;-72
2022/11/14 03:05:32;;;;;;;1.17;0.70;;;;;;;13.30;100.00;102391.31;5108715;28;20028;-71
2022/11/14 03:07:57;;;;;;;2.72;0.60;;;;;;;13.37;100.00;102397.69;5098390;28;20032;-70
2022/11/14 03:10:23;;;;;;;0.98;0.50;;;;;;;13.41;100.00;102403.63;5103002;28;20085;-76
2022/11/14 03:12:53;;;;;;;1.08;0.45;;;;;;;13.39;100.00;102395.66;5104910;28;20035;-73
2022/11/14 03:15:19;;;;;;;1.35;0.57;;;;;;;13.28;100.00;102397.97;5095141;28;20028;-80
2022/11/14 03:17:44;;;;;;;2.38;0.47;;;;;;;13.34;100.00;102398.09;5089989;28;20051;-76
2022/11/14 03:20:10;;;;;;;4.80;1.02;;;;;;;13.38;100.00;102391.28;5081752;28;20039;-82
2022/11/14 03:22:35;;;;;;;0.70;0.45;;;;;;;13.37;100.00;102391.44;5101173;28;20032;-73
2022/11/14 03:25:00;;;;;;;1.13;0.47;;;;;;;13.33;100.00;102388.28;5106428;28;20032;-78
2022/11/14 03:27:26;;;;;;;1.58;0.60;;;;;;;13.34;100.00;102381.00;5077141;28;20059;-71
2022/11/14 03:29:51;;;;;;;1.50;0.50;;;;;;;13.33;100.00;102374.75;5107260;28;20385;-72
2022/11/14 03:32:17;;;;;;;1.58;0.50;;;;;;;13.28;100.00;102376.34;5082175;28;20035;-72
2022/11/14 03:34:42;;;;;;;1.05;0.43;;;;;;;13.24;100.00;102374.94;5099787;28;20036;-76
2022/11/14 03:37:08;;;;;;;3.63;0.40;;;;;;;13.19;100.00;102374.66;5105199;28;20040;-71
2022/11/14 03:39:34;;;;;;;2.47;0.47;;;;;;;13.18;100.00;102371.13;5077110;28;20031;-74
2022/11/14 03:41:59;;;;;;;1.38;0.50;;;;;;;13.17;100.00;102370.25;5106273;28;20047;-76
2022/11/14 03:44:24;;;;;;;2.15;0.57;;;;;;;12.85;100.00;102322.66;5101321;28;20044;-64
2022/11/14 03:46:51;;;;;;;2.05;0.60;;;;;;;13.13;100.00;102371.63;5081108;28;20036;-70
2022/11/14 03:49:16;;;;;;;2.03;0.47;;;;;;;13.10;100.00;102360.34;5108586;28;20039;-70
2022/11/14 03:51:42;;;;;;;0.95;0.43;;;;;;;13.08;100.00;102355.13;5095021;28;20027;-77
2022/11/14 03:54:07;;;;;;;1.77;0.40;;;;;;;13.06;100.00;102353.59;5104484;28;20039;-68
2022/11/14 03:56:33;;;;;;;1.17;0.40;;;;;;;13.01;100.00;102354.13;5102406;28;20031;-78
2022/11/14 03:58:58;;;;;;;0.73;0.43;;;;;;;13.02;100.00;102363.94;5097609;28;20114;-77
2022/11/14 04:01:23;;;;;;;3.88;0.60;;;;;;;12.87;100.00;102363.00;5110133;28;20048;-66
2022/11/14 04:03:49;;;;;;;2.53;0.40;;;;;;;12.91;100.00;102361.59;5099189;28;20120;-70
2022/11/14 04:06:14;;;;;;;2.40;0.40;;;;;;;12.99;100.00;102363.44;5107507;28;20032;-72
2022/11/14 04:08:40;;;;;;;6.35;0.52;;;;;;;12.80;100.00;102318.78;5106791;28;20145;-70
2022/11/14 04:11:06;;;;;;;2.58;0.40;;;;;;;13.04;100.00;102359.19;5100044;28;20032;-76
2022/11/14 04:13:31;;;;;;;2.15;0.40;;;;;;;12.94;100.00;102337.78;5111410;28;20036;-66
2022/11/14 04:15:57;;;;;;;1.58;0.40;;;;;;;13.07;100.00;102350.72;5081433;28;20429;-72
2022/11/14 04:18:24;;;;;;;3.17;0.50;;;;;;;13.06;100.00;102346.34;5088009;28;20483;-69
2022/11/14 04:20:50;;;;;;;0.73;0.47;;;;;;;13.02;100.00;102338.78;5107671;28;20123;-72
2022/11/14 04:23:16;;;;;;;1.33;0.40;;;;;;;12.99;100.00;102349.94;5097560;28;20403;-64
2022/11/14 04:25:43;;;;;;;1.63;0.40;;;;;;;12.88;100.00;102343.91;5092486;28;20032;-69
2022/11/14 04:28:08;;;;;;;1.20;0.43;;;;;;;12.89;100.00;102333.94;5101731;28;20027;-72
2022/11/14 04:30:34;;;;;;;1.92;0.50;;;;;;;12.85;100.00;102344.28;5086388;28;20415;-71
2022/11/14 04:32:59;;;;;;;2.20;0.40;;;;;;;12.85;100.00;102338.88;5108907;28;20044;-70
2022/11/14 04:35:24;;;;;;;2.28;0.55;;;;;;;12.89;100.00;102333.94;5078965;28;20411;-74
2022/11/14 04:37:50;;;;;;;1.60;0.50;;;;;;;12.94;100.00;102331.53;5109692;28;20034;-73
2022/11/14 04:40:15;;;;;;;2.25;0.40;;;;;;;12.98;100.00;102326.63;5083513;28;20028;-75
2022/11/14 04:42:41;;;;;;;3.15;0.50;;;;;;;12.99;100.00;102328.31;5102226;28;20036;-79
2022/11/14 04:45:09;;;;;;;1.02;0.52;;;;;;;13.01;100.00;102316.28;5108831;28;20040;-67
2022/11/14 04:47:34;;;;;;;1.65;0.60;;;;;;;13.03;100.00;102329.66;5096168;28;20101;-77
2022/11/14 04:50:00;;;;;;;1.05;0.47;;;;;;;13.03;100.00;102322.38;5089698;28;20498;-70
2022/11/14 04:52:25;;;;;;;1.65;0.50;;;;;;;13.05;100.00;102320.34;5103590;28;20051;-63
2022/11/14 04:54:51;;;;;;;2.25;0.50;;;;;;;13.04;100.00;102324.03;5082797;28;20399;-73
2022/11/14 04:57:16;;;;;;;1.63;0.50;;;;;;;12.86;100.00;102291.06;5092021;28;20035;-74
2022/11/14 04:59:42;;;;;;;3.03;0.70;;;;;;;12.90;100.00;102320.25;5062208;28;20028;-69
2022/11/14 05:02:07;;;;;;;2.30;0.73;;;;;;;12.58;100.00;102280.75;5108206;28;20048;-67
2022/11/14 05:04:33;;;;;;;0.98;0.55;;;;;;;12.75;100.00;102315.75;5105390;28;20027;-65
2022/11/14 05:06:58;;;;;;;2.00;0.70;;;;;;;12.76;100.00;102307.50;5101874;28;20150;-69
2022/11/14 05:09:24;;;;;;;1.80;0.73;;;;;;;12.78;100.00;102304.63;5111296;28;20043;-68
2022/11/14 05:11:49;;;;;;;1.33;0.70;;;;;;;12.75;100.00;102308.53;5098095;28;20034;-68
2022/11/14 05:14:17;;;;;;;2.22;0.50;;;;;;;12.71;100.00;102304.47;5071857;28;20032;-71
2022/11/14 05:16:43;;;;;;;3.92;0.60;;;;;;;12.65;100.00;102307.91;5087989;28;20063;-66
2022/11/14 05:19:08;;;;;;;1.95;0.50;;;;;;;12.39;100.00;102268.53;5099437;28;20046;-67
2022/11/14 05:21:34;;;;;;;1.95;0.40;;;;;;;12.44;100.00;102303.09;5093214;28;20036;-80
2022/11/14 05:23:59;;;;;;;3.45;0.50;;;;;;;12.42;100.00;102305.13;5082115;28;20043;-71
2022/11/14 05:26:25;;;;;;;2.67;0.57;;;;;;;12.54;100.00;102302.88;5087211;28;20031;-68
2022/11/14 05:28:50;;;;;;;1.05;0.60;;;;;;;12.38;100.00;102298.38;5107059;28;20553;-67
2022/11/14 05:31:16;;;;;;;0.98;0.50;;;;;;;12.43;100.00;102301.41;5080447;28;20036;-64
2022/11/14 05:33:43;;;;;;;3.03;0.60;;;;;;;12.41;100.00;102303.44;5092289;28;20119;-71
2022/11/14 05:36:28;;;;;;;0.88;0.52;;;;;;;12.49;100.00;102299.88;5100756;28;20035;-63
2022/11/14 05:38:54;;;;;;;0.77;0.77;;;;;;;12.39;100.00;102276.63;5041511;28;20045;-72
2022/11/14 05:41:19;;;;;;;1.02;0.88;;;;;;;12.55;100.00;102300.03;5050805;28;20048;-67
2022/11/14 05:43:45;;;;;;;1.83;0.90;;;;;;;12.59;100.00;102298.63;5054610;28;20032;-68
2022/11/14 05:46:13;;;;;;;1.02;0.77;;;;;;;12.67;100.00;102295.88;5063834;28;20033;-66
2022/11/14 05:48:38;;;;;;;1.67;1.35;;;;;;;12.54;100.00;102295.63;5062067;28;20032;-83
2022/11/14 05:51:06;;;;;;;3.42;1.38;;;;;;;12.27;100.00;102296.06;5040023;28;20467;-69
2022/11/14 05:53:32;;;;;;;2.13;1.48;;;;;;;12.28;100.00;102297.75;5067771;28;20085;-69
2022/11/14 05:56:03;;;;;;;4.47;2.20;;;;;;;12.31;100.00;102298.22;5056632;28;20426;-68
2022/11/14 05:58:30;;;;;;;3.42;2.35;;;;;;;12.13;100.00;102297.63;5045395;28;20056;-75
2022/11/14 06:01:04;;;;;;;2.20;1.98;;;;;;;11.94;100.00;102293.44;5063991;28;20056;-74
2022/11/14 06:03:34;;;;;;;2.50;1.73;;;;;;;11.94;100.00;102302.38;5054396;28;20214;-72
2022/11/14 06:06:02;;;;;;;1.60;1.25;;;;;;;12.14;100.00;102296.59;5065556;28;20052;-73
2022/11/14 06:08:28;;;;;;;1.83;1.30;;;;;;;12.13;100.00;102300.34;5043632;28;20036;-65
2022/11/14 06:10:54;;;;;;;3.33;1.08;;;;;;;12.18;100.00;102287.97;5057988;28;20096;-68
2022/11/14 06:13:19;;;;;;;2.67;1.20;;;;;;;11.95;100.00;102290.59;5051013;28;20545;-71
2022/11/14 06:15:45;;;;;;;1.73;1.13;;;;;;;11.94;100.00;102277.25;5028719;28;20121;-70
2022/11/14 06:18:10;;;;;;;1.92;1.10;;;;;;;12.06;100.00;102299.34;5085655;28;20043;-78
2022/11/14 06:20:36;;;;;;;2.85;1.00;;;;;;;11.82;100.00;102297.47;5087899;28;20051;-80
2022/11/14 06:23:01;;;;;;;1.85;1.00;;;;;;;11.99;100.00;102299.19;5065717;28;20119;-72
2022/11/14 06:25:26;;;;;;;2.03;0.80;;;;;;;11.97;100.00;102303.91;5093326;28;20024;-78
2022/11/14 06:27:52;;;;;;;2.47;0.95;;;;;;;12.01;100.00;102301.69;5078659;28;20375;-70
2022/11/14 06:30:17;;;;;;;2.38;0.90;;;;;;;11.83;100.00;102312.66;5086156;28;20040;-75
2022/11/14 06:32:42;;;;;;;5.60;1.15;;;;;;;11.75;100.00;102313.50;5085142;28;20032;-78
2022/11/14 06:35:08;;;;;;;1.92;1.30;;;;;;;11.66;100.00;102277.63;5078225;28;20033;-72
2022/11/14 06:37:36;;;;;;;2.15;1.38;;;;;;;11.81;100.00;102306.59;5088755;28;20036;-71
2022/11/14 06:40:01;;;;;;;3.53;1.30;;;;;;;11.95;100.00;102295.13;5078689;28;20106;-67
2022/11/14 06:42:26;;;;;;;3.65;1.58;;;;;;;12.12;100.00;102314.81;5083398;28;20436;-71
2022/11/14 06:44:52;;;;;;;2.78;1.73;;;;;;;12.15;100.00;102314.47;5083726;28;20032;-68
2022/11/14 06:47:17;;;;;;;2.70;1.38;;;;;;;11.88;100.00;102291.44;5076493;28;20036;-77
2022/11/14 06:49:42;;;;;;;3.53;1.30;;;;;;;12.12;100.00;102310.28;5089021;28;20021;-84
2022/11/14 06:52:08;;;;;;;2.45;1.20;;;;;;;11.90;100.00;102268.69;5079208;28;20383;-76
2022/11/14 06:54:33;;;;;;;2.83;1.10;;;;;;;12.12;100.00;102307.59;5082877;28;20120;-73
2022/11/14 06:56:59;;;;;;;2.08;1.00;;;;;;;11.89;100.00;102309.31;5084904;28;20086;-82
2022/11/14 06:59:24;;;;;;;3.97;1.10;;;;;;;11.70;100.00;102303.22;5075545;28;20111;-76
2022/11/14 07:01:49;;;;;;;3.67;1.10;;;;;;;11.54;100.00;102303.25;5087795;28;20049;-63
2022/11/14 07:04:15;;;;;;;5.10;1.50;;;;;;;11.60;100.00;102316.03;5062275;28;20032;-68
2022/11/14 07:06:40;;;;;;;3.53;1.30;;;;;;;11.84;100.00;102309.81;5081433;28;20116;-80
2022/11/14 07:09:06;;;;;;;4.63;1.27;;;;;;;11.75;100.00;102306.28;5069355;28;20039;-83
2022/11/14 07:11:34;;;;;;;3.30;1.30;;;;;;;11.52;100.00;102311.50;5074484;28;20037;-76
2022/11/14 07:14:02;;;;;;;1.75;1.20;;;;;;;11.43;100.00;102308.97;5087379;28;20058;-79
2022/11/14 07:16:29;;;;;;;3.97;1.20;;;;;;;11.44;100.00;102311.50;5081641;28;20118;-72
2022/11/14 07:18:56;;;;;;;2.67;1.25;;;;;;;11.34;100.00;102309.97;5079488;28;20585;-78
2022/11/14 07:21:22;;;;;;;1.88;1.00;;;;;;;11.35;100.00;102300.88;5087820;28;20024;-78
2022/11/14 07:23:47;;;;;;;3.78;1.10;;;;;;;11.50;100.00;102308.13;5074940;28;20040;-78
2022/11/14 07:26:12;;;;;;;1.52;0.90;;;;;;;11.65;100.00;102310.13;5085748;28;20033;-84
2022/11/14 07:28:43;;;;;;;3.30;1.00;;;;;;;11.56;100.00;102313.88;5083063;28;20107;-83
2022/11/14 07:31:14;;;;;;;2.88;1.13;;;;;;;11.47;100.00;102304.94;5077425;28;20028;-81
2022/11/14 07:33:40;;;;;;;2.00;1.15;;;;;;;11.22;100.00;102269.88;5087852;28;20055;-77
2022/11/14 07:36:07;;;;;;;2.97;1.33;;;;;;;11.16;100.00;102269.69;5079803;28;20047;-83
2022/11/14 07:38:33;;;;;;;2.85;1.60;;;;;;;11.46;100.00;102295.16;5085611;28;20052;-84
2022/11/14 07:41:01;;;;;;;3.38;1.80;;;;;;;11.41;100.00;102294.81;5089190;28;20028;-79
2022/11/14 07:43:27;;;;;;;2.20;1.67;;;;;;;11.34;100.00;102293.81;5078399;28;20158;-85
2022/11/14 07:45:57;;;;;;;2.20;1.52;;;;;;;11.05;100.00;102293.25;5089518;28;20551;-84
2022/11/14 07:48:22;;;;;;;2.10;1.60;;;;;;;11.25;100.00;102290.25;5082522;28;20483;-80
2022/11/14 07:50:48;;;;;;;2.53;1.38;;;;;;;11.39;100.00;102291.44;5082403;28;20135;-72
2022/11/14 07:53:14;;;;;;;2.17;1.33;;;;;;;11.28;100.00;102285.38;5089773;28;20506;-75
2022/11/14 07:55:39;;;;;;;1.60;1.35;;;;;;;11.31;100.00;102284.19;5078714;28;20025;-82
2022/11/14 07:58:05;;;;;;;1.50;1.15;;;;;;;11.40;100.00;102282.34;5089655;28;20078;-77
2022/11/14 08:00:30;;;;;;;3.63;1.30;;;;;;;11.39;100.00;102277.97;5083855;28;20084;-82
2022/11/14 08:02:55;;;;;;;2.67;0.90;;;;;;;11.56;100.00;102293.13;5101600;28;20052;-78
2022/11/14 08:05:21;;;;;;;2.58;0.70;;;;;;;11.52;100.00;102283.69;5093919;28;20390;-74
2022/11/14 08:07:52;;;;;;;3.65;0.52;;;;;;;11.39;100.00;102284.22;5064673;28;20046;-81
2022/11/14 08:10:18;;;;;;;1.42;0.40;;;;;;;11.17;100.00;102288.41;5108074;28;20032;-75
2022/11/14 08:12:44;;;;;;;0.80;0.50;;;;;;;11.34;100.00;102286.56;5107255;28;20038;-82
2022/11/14 08:15:12;;;;;;;2.50;0.63;;;;;;;11.42;100.00;102283.88;5100945;28;20074;-80
2022/11/14 08:17:38;;;;;;;1.67;1.33;;;;;;;11.23;100.00;102259.94;5112245;28;20550;-79
2022/11/14 08:20:05;;;;;;;1.30;0.47;;;;;;;11.21;100.00;102278.97;5077414;28;20040;-84
2022/11/14 08:22:30;;;;;;;2.15;0.70;;;;;;;11.29;100.00;102276.28;5104630;28;20027;-80
2022/11/14 08:24:56;;;;;;;1.92;0.40;;;;;;;11.22;100.00;102275.25;5102459;28;20036;-81
2022/11/14 08:27:22;;;;;;;0.63;0.40;;;;;;;11.28;100.00;102274.59;5111941;28;20574;-76
2022/11/14 08:29:49;;;;;;;1.10;0.40;;;;;;;11.33;100.00;102279.50;5082219;28;20370;-83
2022/11/14 08:32:16;;;;;;;1.13;0.50;;;;;;;11.14;100.00;102250.19;5089647;28;20042;-68
2022/11/14 08:34:41;;;;;;;1.77;0.85;;;;;;;11.38;100.00;102268.19;5105939;28;20543;-72
2022/11/14 08:37:06;;;;;;;1.10;0.40;;;;;;;11.36;100.00;102262.16;5082468;28;20043;-82
2022/11/14 08:39:32;;;;;;;1.40;0.43;;;;;;;11.19;100.00;102267.53;5111730;28;20051;-66
2022/11/14 08:41:57;;;;;;;1.30;0.60;;;;;;;11.40;100.00;102258.09;5064940;28;20107;-72
2022/11/14 08:44:22;;;;;;;1.25;0.55;;;;;;;11.36;100.00;102265.69;5107143;28;20028;-78
2022/11/14 08:46:49;;;;;;;2.15;0.70;;;;;;;11.38;100.00;102260.09;5088902;28;20043;-83
2022/11/14 08:49:15;;;;;;;0.60;0.30;;;;;;;11.29;100.00;102264.66;5099693;28;20027;-73
2022/11/14 08:51:40;;;;;;;1.13;0.50;;;;;;;11.40;100.00;102263.50;5111316;28;20375;-64
2022/11/14 08:54:06;;;;;;;3.33;0.50;;;;;;;11.21;100.00;102257.41;5082828;28;20517;-80
2022/11/14 08:56:31;;;;;;;1.35;0.60;;;;;;;11.33;100.00;102259.78;5086876;28;20036;-78
2022/11/14 08:58:57;;;;;;;1.38;0.47;;;;;;;11.40;100.00;102258.94;5108065;28;20031;-75
2022/11/14 09:01:22;;;;;;;0.70;0.47;;;;;;;11.34;100.00;102254.22;5080029;28;20184;-79
2022/11/14 09:03:48;;;;;;;2.22;0.77;;;;;;;11.25;100.00;102256.06;5092968;28;20063;-84
2022/11/14 09:06:13;;;;;;;1.38;0.70;;;;;;;11.31;100.00;102253.72;5101442;28;20134;-80
2022/11/14 09:08:42;;;;;;;1.75;0.60;;;;;;;11.43;100.00;102246.97;5104198;28;20073;-84
2022/11/14 09:11:07;;;;;;;0.95;0.80;;;;;;;11.43;100.00;102246.97;5109080;28;20045;-82
2022/11/14 09:13:33;;;;;;;1.05;0.63;;;;;;;11.37;100.00;102251.19;5097685;28;20124;-73
2022/11/14 09:15:58;;;;;;;3.65;0.90;;;;;;;11.48;100.00;102248.13;5109446;28;20028;-81
2022/11/14 09:18:24;;;;;;;1.52;0.70;;;;;;;11.20;100.00;102212.63;5084959;28;20482;-72
2022/11/14 09:20:49;;;;;;;2.05;0.98;;;;;;;11.14;100.00;102223.22;5084475;28;20043;-84
2022/11/14 09:23:14;;;;;;;1.55;0.90;;;;;;;11.32;100.00;102242.75;5109724;28;20084;-79
2022/11/14 09:25:40;;;;;;;2.00;1.10;;;;;;;11.27;100.00;102245.13;5079467;28;20446;-80
2022/11/14 09:28:07;;;;;;;1.50;0.82;;;;;;;11.34;100.00;102242.59;5090403;28;20056;-73
2022/11/14 09:30:34;;;;;;;3.03;0.98;;;;;;;11.27;100.00;102243.28;5085237;28;20429;-77
2022/11/14 09:33:00;;;;;;;1.98;0.80;;;;;;;11.27;100.00;102245.97;5082452;28;20035;-83
2022/11/14 09:35:26;;;;;;;2.13;1.08;;;;;;;11.41;100.00;102236.34;5075751;28;20080;-83
2022/11/14 09:38:06;;;;;;;1.75;0.90;;;;;;;11.20;100.00;102239.56;5079150;28;20058;-69
2022/11/14 09:40:59;;;;;;;1.55;0.98;;;;;;;11.26;100.00;102240.75;5087448;28;20047;-75
2022/11/14 09:43:55;;;;;;;3.25;1.10;;;;;;;11.38;100.00;102230.47;5110993;28;20075;-78
2022/11/14 09:46:31;;;;;;;2.80;1.17;;;;;;;11.10;100.00;102229.97;5083722;28;20036;-77
2022/11/14 09:48:57;;;;;;;2.60;1.20;;;;;;;11.12;100.00;102239.56;5101175;28;20024;-79
2022/11/14 09:51:26;;;;;;;1.77;1.20;;;;;;;11.13;100.00;102238.56;5109763;28;20038;-79
2022/11/14 09:54:09;;;;;;;1.92;1.10;;;;;;;11.02;100.00;102220.84;5080984;28;20392;-79
2022/11/14 09:56:34;;;;;;;2.90;1.00;;;;;;;11.01;100.00;102229.13;5104147;28;20099;-85
2022/11/14 09:59:00;;;;;;;2.42;0.93;;;;;;;11.24;100.00;102232.00;5087686;28;20041;-79
2022/11/14 10:01:28;;;;;;;3.90;1.40;;;;;;;11.10;100.00;102228.13;5096514;28;20108;-85
2022/11/14 10:04:09;;;;;;;4.55;1.45;;;;;;;10.98;100.00;102199.81;5110235;28;20036;-63
2022/11/14 10:06:47;;;;;;;1.92;1.10;;;;;;;11.11;100.00;102221.72;5106195;28;20103;-73
2022/11/14 10:09:18;;;;;;;5.75;1.42;;;;;;;11.10;100.00;102209.25;5102768;28;20436;-79
2022/11/14 10:12:09;;;;;;;4.15;1.38;;;;;;;11.11;100.00;102213.63;5113758;28;20392;-71
2022/11/14 10:14:58;;;;;;;2.45;1.27;;;;;;;11.20;100.00;102214.47;5035636;28;20530;-73
2022/11/14 10:17:52;;;;;;;9.32;1.35;;;;;;;11.20;100.00;102207.25;5034861;28;20044;-73
2022/11/14 10:20:31;;;;;;;4.43;1.65;;;;;;;11.23;100.00;102200.69;5038699;28;20064;-76
2022/11/14 10:23:17;;;;;;;2.80;1.90;;;;;;;11.13;100.00;102191.94;5050729;28;20086;-75
2022/11/14 10:26:23;;;;;;;5.50;1.98;;;;;;;11.03;100.00;102167.84;5050211;28;20061;-80
2022/11/14 10:29:04;;;;;;;5.30;2.35;;;;;;;11.16;100.00;102196.94;5050896;28;20408;-82
2022/11/14 10:31:38;;;;;;;3.20;1.98;;;;;;;11.16;100.00;102186.16;5053691;28;20087;-64
2022/11/14 10:34:08;;;;;;;9.05;2.40;;;;;;;11.11;100.00;102180.47;5054180;28;20588;-62
2022/11/14 10:37:05;;;;;;;3.47;2.22;;;;;;;10.87;100.00;102168.69;5053870;28;20037;-70
2022/11/14 10:39:39;;;;;;;4.60;2.50;;;;;;;10.97;100.00;102180.13;5054110;28;20029;-63
2022/11/14 10:42:35;;;;;;;4.40;2.22;;;;;;;11.03;100.00;102167.84;5054028;28;20555;-63
2022/11/14 10:45:34;;;;;;;4.32;2.33;;;;;;;11.16;100.00;102172.69;5054783;28;20442;-64
2022/11/14 10:48:11;;;;;;;3.53;2.00;;;;;;;11.12;100.00;102150.66;5087238;28;20031;-65
2022/11/14 10:50:43;;;;;;;6.78;2.30;;;;;;;11.29;100.00;102156.84;5092591;28;20178;-63
2022/11/14 10:53:27;;;;;;;6.22;2.10;;;;;;;11.31;100.00;102156.69;5096918;28;20036;-67
2022/11/14 10:55:54;;;;;;;4.10;2.13;;;;;;;11.19;100.00;102154.38;5086697;28;20011;-63
2022/11/14 10:58:21;;;;;;;5.72;2.20;;;;;;;11.01;100.00;102114.13;5112868;28;20036;-63
2022/11/14 11:00:46;;;;;;;4.00;1.90;;;;;;;11.13;100.00;102146.97;5110981;28;20027;-64
2022/11/14 11:03:11;;;;;;;3.53;1.85;;;;;;;11.04;100.00;102134.50;5086815;28;20063;-63
2022/11/14 11:05:55;;;;;;;5.97;2.00;;;;;;;11.19;100.00;102135.50;5097079;28;20121;-68
2022/11/14 11:11:32;;;;;;;2.80;1.83;;;;;;;11.34;100.00;102132.13;5111911;28;20089;-62
2022/11/14 11:13:59;;;;;;;5.78;3.47;;;;;;;11.29;100.00;102129.91;5092956;28;20028;-62
2022/11/14 11:16:26;;;;;;;6.70;3.00;;;;;;;11.40;100.00;102113.41;5112239;28;20032;-63
2022/11/14 11:18:53;;;;;;;4.93;2.15;;;;;;;11.45;100.00;102112.88;5091551;28;20028;-65
2022/11/14 11:21:21;;;;;;;5.38;2.10;;;;;;;11.52;100.00;102116.56;5101345;28;20047;-80
2022/11/14 11:23:52;;;;;;;6.95;1.95;;;;;;;11.57;100.00;102106.09;5115651;28;20019;-79